Airport View

Enter AWOS ICAO identifier for current METAR.

ex. KFNL

KVIS 261056Z AUTO 30005KT 10SM CLR 18/09 A2985 RMK AO2 SLP111 T01830089

26 Jun 2019 11:48

Frequency: 119.925

Phone: 559-651-2418

Other Area AWOS: KHJO - KPTV - KNLC - KFAT

TAF KVIS 260524Z 2606/2706 31010KT P6SM SKC FM260800 28005KT P6SM SKC FM262300 31010G17KT P6SM SKC